X  Chiuso Dati meteorologici dell'aviazione (METAR)     LIPX Verona-Villafranca Valerio Catullo Airport
Temperatura
31°C Temperatura
18°C Punto di rugiada
46% Umidità



Vento
10 KM/O
6 MPH
3 M/S
5 KTS



280°
O
Condizioni attuali

Nuvole per lo più sparse Nuvole per lo più sparse
Pressione 1008.81 (hPa) - 29.79 (inHg)
Visibilità 6 (miglio) - 9.7 (km)
Aeroporto
Codice-Aeroporto LIPX

Posizione: Verona-Villafranca Valerio Catullo Airport
Distanza: 50 (km)

Metar:
LIPX 131220Z 28005KT 220V020 9999 SCT040 31/18 Q1009

Ore: 13-07-2024 14:20 CEST